Time;durP1;ratioP1;P1;durP2;ratioP2;P2;SDS_P1;SDS_P2;PMS_P1;PMS_P2;Temp;Humidity;BMP_temperature;BMP_pressure;BME280_temperature;BME280_humidity;BME280_pressure;Samples;Min_cycle;Max_cycle;Signal;HPM_P1;HPM_P2
2023/11/10 00:00:10;;;;;;;8.90;1.37;;;;;;;;;;5062807;28;20476;-79
2023/11/10 00:02:39;;;;;;;7.20;1.60;;;;;;;;;;5064127;28;20468;-79
2023/11/10 00:05:08;;;;;;;6.60;1.60;;;;;;;;;;5062665;28;20461;-79
2023/11/10 00:07:35;;;;;;;5.20;1.57;;;;;;;;;;5062366;28;20577;-80
2023/11/10 00:10:08;;;;;;;5.83;1.53;;;;;;;;;;5063971;28;20518;-78
2023/11/10 00:12:36;;;;;;;3.20;1.17;;;;;;;;;;5063139;28;20473;-78
2023/11/10 00:15:06;;;;;;;5.97;1.60;;;;;;;;;;5063582;28;20495;-79
2023/11/10 00:17:33;;;;;;;4.43;1.37;;;;;;;;;;5065133;28;20567;-80
2023/11/10 00:20:07;;;;;;;3.10;1.30;;;;;;;;;;5066771;28;20472;-79
2023/11/10 00:22:35;;;;;;;4.67;1.53;;;;;;;;;;5065659;28;20465;-79
2023/11/10 00:25:02;;;;;;;4.43;1.50;;;;;;;;;;5067835;28;20441;-78
2023/11/10 00:27:35;;;;;;;7.43;1.80;;;;;;;;;;5059054;28;20803;-78
2023/11/10 00:30:10;;;;;;;4.17;1.67;;;;;;;;;;5066417;28;20444;-80
2023/11/10 00:32:39;;;;;;;4.43;1.33;;;;;;;;;;5067202;28;20453;-80
2023/11/10 00:35:09;;;;;;;4.93;1.50;;;;;;;;;;5066756;28;20496;-79
2023/11/10 00:37:37;;;;;;;5.80;1.30;;;;;;;;;;5065033;28;20970;-80
2023/11/10 00:40:08;;;;;;;4.23;1.37;;;;;;;;;;5066750;28;20456;-78
2023/11/10 00:42:36;;;;;;;2.57;0.90;;;;;;;;;;5065100;28;20860;-79
2023/11/10 00:45:07;;;;;;;5.50;2.07;;;;;;;;;;5064637;28;20457;-79
2023/11/10 00:47:35;;;;;;;4.80;1.20;;;;;;;;;;5065883;28;20457;-79
2023/11/10 00:50:10;;;;;;;2.90;1.07;;;;;;;;;;5066775;28;20453;-80
2023/11/10 00:52:38;;;;;;;3.53;1.10;;;;;;;;;;5067061;28;20519;-79
2023/11/10 00:55:07;;;;;;;4.70;1.00;;;;;;;;;;5066538;28;20456;-80
2023/11/10 00:57:34;;;;;;;5.90;1.10;;;;;;;;;;5065709;28;20529;-80
2023/11/10 01:00:11;;;;;;;3.57;0.90;;;;;;;;;;5066919;28;20438;-79
2023/11/10 01:02:39;;;;;;;3.90;1.17;;;;;;;;;;5065833;28;20748;-80
2023/11/10 01:05:07;;;;;;;1.87;0.70;;;;;;;;;;5066124;28;20457;-80
2023/11/10 01:07:34;;;;;;;4.60;0.80;;;;;;;;;;5066541;28;20484;-80
2023/11/10 01:10:13;;;;;;;4.47;0.70;;;;;;;;;;5067623;28;20819;-79
2023/11/10 01:12:42;;;;;;;4.27;1.00;;;;;;;;;;5058551;28;20493;-80
2023/11/10 01:15:11;;;;;;;3.70;0.80;;;;;;;;;;5064808;28;20511;-80
2023/11/10 01:17:40;;;;;;;2.37;0.70;;;;;;;;;;5064400;28;20478;-79
2023/11/10 01:20:09;;;;;;;2.40;0.80;;;;;;;;;;5067351;28;20473;-78
2023/11/10 01:22:38;;;;;;;2.30;0.90;;;;;;;;;;5068345;28;20441;-79
2023/11/10 01:25:08;;;;;;;6.53;1.07;;;;;;;;;;5070590;28;20772;-80
2023/11/10 01:27:36;;;;;;;2.10;0.67;;;;;;;;;;5069165;28;20492;-80
2023/11/10 01:30:12;;;;;;;2.63;0.80;;;;;;;;;;5071037;28;20444;-79
2023/11/10 01:32:40;;;;;;;7.93;0.80;;;;;;;;;;5069512;28;20708;-78
2023/11/10 01:35:08;;;;;;;4.93;1.20;;;;;;;;;;5070289;28;20476;-78
2023/11/10 01:37:40;;;;;;;3.87;1.00;;;;;;;;;;5069328;28;20624;-78
2023/11/10 01:42:34;;;;;;;2.43;0.93;;;;;;;;;;5071638;28;20495;-79
2023/11/10 01:45:05;;;;;;;2.30;0.80;;;;;;;;;;5074964;28;20207;-80
2023/11/10 01:47:37;;;;;;;2.43;0.93;;;;;;;;;;5075937;28;20453;-80
2023/11/10 01:50:10;;;;;;;3.70;0.80;;;;;;;;;;5069606;28;20468;-80
2023/11/10 01:52:38;;;;;;;2.53;0.90;;;;;;;;;;5067985;28;20453;-79
2023/11/10 01:55:07;;;;;;;3.07;0.80;;;;;;;;;;5069152;28;20440;-80
2023/11/10 01:57:36;;;;;;;4.00;0.90;;;;;;;;;;5069234;28;20505;-81
2023/11/10 02:00:08;;;;;;;2.07;0.90;;;;;;;;;;5068348;28;20467;-79
2023/11/10 02:02:35;;;;;;;4.70;0.77;;;;;;;;;;5070173;28;20461;-79
2023/11/10 02:05:03;;;;;;;2.97;1.30;;;;;;;;;;5067702;28;20478;-79
2023/11/10 02:07:30;;;;;;;2.57;0.80;;;;;;;;;;5070585;28;20453;-80
2023/11/10 02:09:58;;;;;;;4.50;0.90;;;;;;;;;;5068429;28;20504;-80
2023/11/10 02:12:25;;;;;;;2.90;1.00;;;;;;;;;;5069814;28;20469;-79
2023/11/10 02:14:54;;;;;;;2.73;0.80;;;;;;;;;;5069786;28;20506;-80
2023/11/10 02:17:22;;;;;;;5.83;1.20;;;;;;;;;;5068210;28;20480;-79
2023/11/10 02:19:49;;;;;;;3.10;0.80;;;;;;;;;;5069281;28;20489;-80
2023/11/10 02:22:17;;;;;;;2.70;1.00;;;;;;;;;;5070311;28;20504;-78
2023/11/10 02:24:47;;;;;;;2.40;1.00;;;;;;;;;;5068637;28;20467;-78
2023/11/10 02:27:16;;;;;;;2.70;0.93;;;;;;;;;;5066427;28;20457;-80
2023/11/10 02:29:44;;;;;;;4.03;1.03;;;;;;;;;;5069220;28;20449;-78
2023/11/10 02:32:11;;;;;;;2.43;1.30;;;;;;;;;;5068012;28;20469;-78
2023/11/10 02:34:39;;;;;;;3.17;1.00;;;;;;;;;;5071106;28;20464;-79
2023/11/10 02:37:08;;;;;;;2.47;1.00;;;;;;;;;;5071008;28;20449;-79
2023/11/10 02:39:36;;;;;;;2.47;1.03;;;;;;;;;;5067517;28;20488;-80
2023/11/10 02:42:04;;;;;;;2.30;0.97;;;;;;;;;;5067983;28;20495;-79
2023/11/10 02:44:33;;;;;;;2.40;1.20;;;;;;;;;;5066489;28;20542;-80
2023/11/10 02:47:00;;;;;;;4.33;1.40;;;;;;;;;;5066564;28;20450;-78
2023/11/10 02:49:28;;;;;;;3.33;1.00;;;;;;;;;;5068215;28;20913;-78
2023/11/10 02:51:55;;;;;;;2.43;1.10;;;;;;;;;;5065114;28;20530;-80
2023/11/10 02:54:23;;;;;;;3.30;1.70;;;;;;;;;;5067577;28;20425;-80
2023/11/10 02:56:50;;;;;;;2.27;1.10;;;;;;;;;;5067481;28;20511;-80
2023/11/10 02:59:18;;;;;;;5.33;1.80;;;;;;;;;;5066319;28;20843;-81
2023/11/10 03:01:47;;;;;;;2.73;1.60;;;;;;;;;;5069681;28;20873;-79
2023/11/10 03:04:14;;;;;;;2.40;1.47;;;;;;;;;;5068986;28;20442;-80
2023/11/10 03:06:42;;;;;;;2.90;1.63;;;;;;;;;;5067171;28;20509;-79
2023/11/10 03:09:09;;;;;;;5.40;2.43;;;;;;;;;;5067222;28;20461;-77
2023/11/10 03:11:36;;;;;;;3.10;1.70;;;;;;;;;;5068046;28;20469;-80
2023/11/10 03:14:04;;;;;;;5.70;1.73;;;;;;;;;;5068458;28;20919;-78
2023/11/10 03:16:31;;;;;;;3.20;1.70;;;;;;;;;;5066990;28;20515;-79
2023/11/10 03:19:00;;;;;;;3.30;1.80;;;;;;;;;;5066003;28;20539;-79
2023/11/10 03:21:28;;;;;;;3.83;1.60;;;;;;;;;;5067466;28;20800;-78
2023/11/10 03:23:56;;;;;;;3.20;1.50;;;;;;;;;;5065069;28;20450;-79
2023/11/10 03:26:23;;;;;;;4.70;1.87;;;;;;;;;;5066153;28;20530;-79
2023/11/10 03:28:50;;;;;;;4.93;1.97;;;;;;;;;;5064891;28;20552;-78
2023/11/10 03:31:18;;;;;;;3.27;1.80;;;;;;;;;;5065332;28;20461;-80
2023/11/10 03:33:46;;;;;;;4.00;1.60;;;;;;;;;;5065669;28;20452;-79
2023/11/10 03:36:15;;;;;;;3.30;1.70;;;;;;;;;;5065907;28;20508;-79
2023/11/10 03:38:44;;;;;;;2.87;1.37;;;;;;;;;;5067765;28;20496;-79
2023/11/10 03:41:13;;;;;;;2.77;1.47;;;;;;;;;;5064562;28;20580;-80
2023/11/10 03:43:40;;;;;;;6.10;1.67;;;;;;;;;;5065590;28;20445;-78
2023/11/10 03:46:08;;;;;;;2.60;1.27;;;;;;;;;;5067806;28;20454;-79
2023/11/10 03:48:36;;;;;;;2.90;1.33;;;;;;;;;;5069797;28;20468;-78
2023/11/10 03:51:08;;;;;;;2.50;1.33;;;;;;;;;;5071153;28;20670;-77
2023/11/10 03:53:37;;;;;;;3.60;1.30;;;;;;;;;;5068816;28;20453;-79
2023/11/10 03:56:04;;;;;;;3.47;1.37;;;;;;;;;;5070220;28;20445;-79
2023/11/10 03:58:32;;;;;;;3.23;1.20;;;;;;;;;;5073456;28;20449;-79
2023/11/10 04:01:00;;;;;;;4.63;1.67;;;;;;;;;;5067680;28;20485;-78
2023/11/10 04:03:27;;;;;;;3.43;1.40;;;;;;;;;;5067222;28;20483;-78
2023/11/10 04:05:55;;;;;;;7.17;1.53;;;;;;;;;;5074013;28;20450;-79
2023/11/10 04:08:22;;;;;;;2.50;1.30;;;;;;;;;;5073049;28;20458;-79
2023/11/10 04:10:52;;;;;;;2.53;1.30;;;;;;;;;;5067620;28;20528;-79
2023/11/10 04:13:19;;;;;;;3.40;1.20;;;;;;;;;;5066505;28;20533;-79
2023/11/10 04:15:46;;;;;;;3.77;1.40;;;;;;;;;;5066668;28;20444;-78
2023/11/10 04:18:16;;;;;;;2.67;1.40;;;;;;;;;;5066943;28;20440;-78
2023/11/10 04:20:45;;;;;;;3.40;1.43;;;;;;;;;;5069174;28;20469;-79
2023/11/10 04:23:14;;;;;;;3.77;1.23;;;;;;;;;;5066710;28;20484;-80
2023/11/10 04:25:42;;;;;;;8.37;1.60;;;;;;;;;;5066594;28;20454;-77
2023/11/10 04:28:11;;;;;;;2.90;1.53;;;;;;;;;;5067566;28;20457;-80
2023/11/10 04:30:39;;;;;;;3.80;1.40;;;;;;;;;;5066479;28;20457;-80
2023/11/10 04:33:06;;;;;;;3.30;1.30;;;;;;;;;;5064839;28;20454;-80
2023/11/10 04:35:35;;;;;;;5.37;2.23;;;;;;;;;;5064923;28;20483;-80
2023/11/10 04:38:08;;;;;;;3.57;1.57;;;;;;;;;;5063462;28;20560;-80
2023/11/10 04:40:36;;;;;;;3.80;2.03;;;;;;;;;;5063167;28;20535;-80
2023/11/10 04:43:05;;;;;;;2.53;1.30;;;;;;;;;;5063035;28;20453;-80
2023/11/10 04:45:34;;;;;;;3.53;1.60;;;;;;;;;;5062987;28;20461;-80
2023/11/10 04:48:01;;;;;;;4.27;1.70;;;;;;;;;;5062747;28;20857;-79
2023/11/10 04:50:29;;;;;;;2.80;1.47;;;;;;;;;;5064243;28;20456;-79
2023/11/10 04:52:57;;;;;;;4.60;2.07;;;;;;;;;;5064114;28;20462;-79
2023/11/10 04:55:24;;;;;;;3.67;1.60;;;;;;;;;;5063326;28;20466;-79
2023/11/10 04:57:52;;;;;;;3.47;1.47;;;;;;;;;;5063613;28;20886;-80
2023/11/10 05:00:23;;;;;;;6.20;1.60;;;;;;;;;;5064162;28;20749;-79
2023/11/10 05:02:53;;;;;;;2.80;1.20;;;;;;;;;;5063569;28;20492;-79
2023/11/10 05:05:21;;;;;;;5.33;1.63;;;;;;;;;;5065745;28;20517;-79
2023/11/10 05:07:50;;;;;;;8.30;1.93;;;;;;;;;;5065126;28;20457;-78
2023/11/10 05:10:17;;;;;;;2.87;1.17;;;;;;;;;;5065568;28;20539;-78
2023/11/10 05:12:45;;;;;;;2.03;0.83;;;;;;;;;;5062102;28;20469;-78
2023/11/10 05:15:13;;;;;;;2.83;1.10;;;;;;;;;;5063735;28;20528;-78
2023/11/10 05:17:43;;;;;;;3.70;1.33;;;;;;;;;;5061944;28;20462;-78
2023/11/10 05:20:15;;;;;;;4.17;1.10;;;;;;;;;;5063742;28;20477;-80
2023/11/10 05:22:44;;;;;;;3.00;1.17;;;;;;;;;;5061417;28;20455;-79
2023/11/10 05:25:15;;;;;;;3.30;1.00;;;;;;;;;;5061049;28;20574;-79
2023/11/10 05:27:43;;;;;;;3.27;0.90;;;;;;;;;;5061148;28;20528;-80
2023/11/10 05:30:12;;;;;;;4.13;1.20;;;;;;;;;;5063142;28;20480;-78
2023/11/10 05:32:42;;;;;;;6.07;1.43;;;;;;;;;;5063405;28;20551;-78
2023/11/10 05:35:18;;;;;;;8.03;1.40;;;;;;;;;;5061808;28;20501;-80
2023/11/10 05:37:46;;;;;;;4.27;1.23;;;;;;;;;;5061210;28;20458;-79
2023/11/10 05:40:17;;;;;;;3.50;1.40;;;;;;;;;;5063508;28;20485;-79
2023/11/10 05:42:45;;;;;;;2.77;1.10;;;;;;;;;;5067530;28;20457;-79
2023/11/10 05:45:14;;;;;;;3.43;1.27;;;;;;;;;;5061759;28;20876;-79
2023/11/10 05:47:42;;;;;;;8.40;1.40;;;;;;;;;;5059678;28;20453;-79
2023/11/10 05:50:10;;;;;;;7.07;1.47;;;;;;;;;;5060014;28;20441;-79
2023/11/10 05:52:39;;;;;;;3.07;1.10;;;;;;;;;;5058287;28;20453;-79
2023/11/10 05:55:08;;;;;;;5.57;1.20;;;;;;;;;;5056724;28;20700;-80
2023/11/10 05:57:36;;;;;;;2.20;1.03;;;;;;;;;;5057280;28;20488;-80
2023/11/10 06:00:11;;;;;;;4.00;1.03;;;;;;;;;;5057978;28;20473;-79
2023/11/10 06:02:38;;;;;;;5.80;1.50;;;;;;;;;;5057459;28;20544;-80
2023/11/10 06:05:06;;;;;;;6.30;1.07;;;;;;;;;;5057977;28;20532;-78
2023/11/10 06:07:34;;;;;;;3.07;0.90;;;;;;;;;;5060263;28;20759;-80
2023/11/10 06:10:12;;;;;;;1.80;0.90;;;;;;;;;;5063749;28;20445;-80
2023/11/10 06:12:42;;;;;;;4.00;1.00;;;;;;;;;;5064434;28;20476;-77
2023/11/10 06:15:12;;;;;;;3.00;1.53;;;;;;;;;;5064749;28;20669;-79
2023/11/10 06:17:40;;;;;;;2.10;0.70;;;;;;;;;;5063861;28;20461;-79
2023/11/10 06:20:08;;;;;;;2.90;1.10;;;;;;;;;;5063159;28;20485;-80
2023/11/10 06:22:37;;;;;;;6.63;1.10;;;;;;;;;;5062634;28;20453;-79
2023/11/10 06:25:06;;;;;;;2.37;0.80;;;;;;;;;;5060118;28;20515;-79
2023/11/10 06:27:34;;;;;;;2.40;1.07;;;;;;;;;;5059373;28;20892;-79
2023/11/10 06:30:09;;;;;;;2.33;0.80;;;;;;;;;;5060286;28;20784;-78
2023/11/10 06:32:37;;;;;;;2.73;0.83;;;;;;;;;;5059705;28;20468;-79
2023/11/10 06:35:05;;;;;;;3.83;1.23;;;;;;;;;;5059815;28;20459;-78
2023/11/10 06:37:32;;;;;;;6.30;2.03;;;;;;;;;;5059092;28;20449;-78
2023/11/10 06:40:00;;;;;;;4.63;1.10;;;;;;;;;;5059996;28;21127;-79
2023/11/10 06:42:29;;;;;;;3.77;1.27;;;;;;;;;;5060652;28;20474;-78
2023/11/10 06:44:56;;;;;;;4.70;0.87;;;;;;;;;;5058608;28;20484;-78
2023/11/10 06:47:24;;;;;;;7.20;1.83;;;;;;;;;;5059025;28;21429;-78
2023/11/10 06:49:51;;;;;;;3.60;1.10;;;;;;;;;;5057035;28;20445;-79
2023/11/10 06:52:20;;;;;;;4.10;1.10;;;;;;;;;;5057253;28;20539;-79
2023/11/10 06:54:52;;;;;;;2.90;1.40;;;;;;;;;;5056034;28;20567;-78
2023/11/10 06:57:20;;;;;;;3.43;0.83;;;;;;;;;;5062574;28;20528;-78
2023/11/10 06:59:49;;;;;;;2.80;1.00;;;;;;;;;;5060797;28;20768;-78
2023/11/10 07:02:19;;;;;;;7.00;1.40;;;;;;;;;;5060634;28;20478;-79
2023/11/10 07:04:47;;;;;;;4.20;1.57;;;;;;;;;;5057827;28;20461;-80
2023/11/10 07:07:14;;;;;;;5.13;1.20;;;;;;;;;;5056770;28;20484;-79
2023/11/10 07:09:42;;;;;;;9.13;4.93;;;;;;;;;;5057688;28;20473;-79
2023/11/10 07:12:10;;;;;;;3.37;1.63;;;;;;;;;;5059464;28;20461;-79
2023/11/10 07:14:42;;;;;;;6.33;1.30;;;;;;;;;;5040051;28;20470;-80
2023/11/10 07:17:14;;;;;;;4.80;1.90;;;;;;;;;;5058860;28;20596;-78
2023/11/10 07:19:42;;;;;;;4.13;1.20;;;;;;;;;;5056913;28;20473;-79
2023/11/10 07:22:09;;;;;;;4.53;1.00;;;;;;;;;;5054638;28;20553;-79
2023/11/10 07:24:37;;;;;;;3.57;1.37;;;;;;;;;;5035241;28;20476;-78
2023/11/10 07:27:25;;;;;;;9.07;2.67;;;;;;;;;;5038125;28;20454;-79
2023/11/10 07:29:52;;;;;;;3.50;1.17;;;;;;;;;;5034569;28;20457;-78
2023/11/10 07:32:22;;;;;;;5.60;1.30;;;;;;;;;;5055529;28;20476;-78
2023/11/10 07:34:51;;;;;;;4.93;1.20;;;;;;;;;;5055594;28;20500;-79
2023/11/10 07:37:19;;;;;;;3.10;1.70;;;;;;;;;;5041817;28;20563;-79
2023/11/10 07:39:46;;;;;;;2.33;1.00;;;;;;;;;;5056663;28;20481;-79
2023/11/10 07:42:14;;;;;;;4.13;1.00;;;;;;;;;;5039330;28;20467;-81
2023/11/10 07:44:42;;;;;;;4.07;1.30;;;;;;;;;;5034442;28;20457;-80
2023/11/10 07:47:11;;;;;;;3.43;0.80;;;;;;;;;;5029089;28;20498;-81
2023/11/10 07:49:41;;;;;;;3.50;1.30;;;;;;;;;;5039929;28;22269;-80
2023/11/10 07:52:09;;;;;;;3.67;1.23;;;;;;;;;;5031587;28;20475;-81
2023/11/10 07:54:36;;;;;;;4.93;0.80;;;;;;;;;;5033866;28;20817;-80
2023/11/10 07:57:04;;;;;;;9.30;1.50;;;;;;;;;;5040779;28;20509;-80
2023/11/10 07:59:31;;;;;;;8.33;1.30;;;;;;;;;;5042228;28;20427;-78
2023/11/10 08:02:01;;;;;;;2.87;1.10;;;;;;;;;;5041399;28;20458;-78
2023/11/10 08:07:46;;;;;;;4.80;1.20;;;;;;;;;;5044211;28;20443;-79
2023/11/10 08:10:18;;;;;;;3.03;1.47;;;;;;;;;;5038385;28;20462;-78
2023/11/10 08:12:46;;;;;;;3.43;1.00;;;;;;;;;;5037546;28;20532;-79
2023/11/10 08:15:14;;;;;;;8.90;1.57;;;;;;;;;;5043411;28;20489;-80
2023/11/10 08:17:41;;;;;;;5.20;1.10;;;;;;;;;;5041464;28;20447;-80
2023/11/10 08:20:11;;;;;;;5.40;1.30;;;;;;;;;;5042269;28;20512;-79
2023/11/10 08:22:39;;;;;;;3.07;1.20;;;;;;;;;;5046538;28;20496;-80
2023/11/10 08:25:28;;;;;;;4.77;1.40;;;;;;;;;;5046728;28;20850;-79
2023/11/10 08:28:05;;;;;;;2.47;0.97;;;;;;;;;;5037870;28;20450;-79
2023/11/10 08:30:33;;;;;;;7.77;2.90;;;;;;;;;;5043079;28;20447;-80
2023/11/10 08:33:04;;;;;;;5.40;2.00;;;;;;;;;;5045632;28;20682;-80
2023/11/10 08:35:31;;;;;;;5.33;2.03;;;;;;;;;;5057883;28;20559;-79
2023/11/10 08:38:01;;;;;;;2.37;1.17;;;;;;;;;;5062637;28;20462;-80
2023/11/10 08:40:29;;;;;;;3.53;1.30;;;;;;;;;;5085420;28;20499;-80
2023/11/10 08:42:57;;;;;;;4.77;1.40;;;;;;;;;;5087974;28;20452;-80
2023/11/10 08:45:26;;;;;;;5.47;1.63;;;;;;;;;;5088589;28;20436;-81
2023/11/10 08:47:54;;;;;;;3.00;1.37;;;;;;;;;;5084768;28;20464;-80
2023/11/10 08:50:24;;;;;;;2.67;1.17;;;;;;;;;;5085614;28;20465;-79
2023/11/10 08:52:53;;;;;;;8.13;2.10;;;;;;;;;;5084682;28;20859;-79
2023/11/10 08:55:22;;;;;;;3.30;0.90;;;;;;;;;;5079532;28;20486;-79
2023/11/10 08:57:50;;;;;;;5.43;2.17;;;;;;;;;;5084897;28;20522;-79
2023/11/10 09:00:18;;;;;;;2.73;1.33;;;;;;;;;;5062067;28;20477;-79
2023/11/10 09:02:55;;;;;;;6.23;3.90;;;;;;;;;;5046325;28;20454;-79
2023/11/10 09:05:24;;;;;;;3.50;1.37;;;;;;;;;;5048062;28;20442;-78
2023/11/10 09:07:57;;;;;;;2.97;1.13;;;;;;;;;;5042953;28;20507;-79
2023/11/10 09:10:26;;;;;;;4.87;1.10;;;;;;;;;;5043576;28;20449;-79
2023/11/10 09:12:57;;;;;;;7.33;1.10;;;;;;;;;;5044171;28;20450;-78
2023/11/10 09:15:26;;;;;;;2.70;0.93;;;;;;;;;;5044708;28;20466;-79
2023/11/10 09:21:02;;;;;;;8.27;2.00;;;;;;;;;;5063654;28;20483;-78
2023/11/10 09:23:30;;;;;;;3.20;1.30;;;;;;;;;;5056733;28;20498;-79
2023/11/10 09:25:58;;;;;;;7.80;1.13;;;;;;;;;;5063226;28;20463;-78
2023/11/10 09:28:27;;;;;;;3.53;1.40;;;;;;;;;;5064077;28;20457;-79
2023/11/10 09:31:10;;;;;;;5.13;2.40;;;;;;;;;;5064475;28;20459;-79
2023/11/10 09:33:40;;;;;;;4.30;2.10;;;;;;;;;;5066459;28;20449;-79
2023/11/10 09:36:10;;;;;;;2.13;0.90;;;;;;;;;;5060718;28;20826;-79
2023/11/10 09:38:41;;;;;;;2.93;1.00;;;;;;;;;;5062912;28;20573;-79
2023/11/10 09:41:16;;;;;;;4.80;1.50;;;;;;;;;;5059575;28;20457;-80
2023/11/10 09:43:46;;;;;;;3.47;1.23;;;;;;;;;;5063815;28;20444;-79
2023/11/10 09:46:15;;;;;;;3.70;1.30;;;;;;;;;;5070765;28;20468;-79
2023/11/10 09:48:44;;;;;;;4.33;1.33;;;;;;;;;;5065241;28;20972;-79
2023/11/10 09:51:13;;;;;;;3.40;1.30;;;;;;;;;;5065367;28;20461;-78
2023/11/10 09:53:41;;;;;;;4.10;1.20;;;;;;;;;;5078224;28;20506;-80
2023/11/10 09:56:10;;;;;;;4.20;1.00;;;;;;;;;;5063018;28;20457;-79
2023/11/10 09:58:48;;;;;;;3.87;1.47;;;;;;;;;;5063344;28;20469;-77
2023/11/10 10:01:19;;;;;;;2.37;0.90;;;;;;;;;;5062241;28;20507;-80
2023/11/10 10:03:47;;;;;;;3.03;0.90;;;;;;;;;;5061552;28;20523;-78
2023/11/10 10:06:17;;;;;;;1.60;0.67;;;;;;;;;;5066648;28;20433;-80
2023/11/10 10:08:45;;;;;;;4.50;1.23;;;;;;;;;;5066901;28;20440;-78
2023/11/10 10:11:19;;;;;;;2.40;1.00;;;;;;;;;;5069016;28;20760;-79
2023/11/10 10:13:54;;;;;;;2.63;0.90;;;;;;;;;;5054043;28;20458;-78
2023/11/10 10:16:27;;;;;;;4.27;1.10;;;;;;;;;;5059793;28;20514;-80
2023/11/10 10:18:56;;;;;;;2.80;0.90;;;;;;;;;;5062336;28;20531;-78
2023/11/10 10:21:26;;;;;;;5.50;2.70;;;;;;;;;;5064221;28;20492;-79
2023/11/10 10:23:54;;;;;;;4.03;1.20;;;;;;;;;;5065053;28;20845;-79
2023/11/10 10:26:23;;;;;;;4.50;1.37;;;;;;;;;;5066740;28;20450;-80
2023/11/10 10:28:57;;;;;;;2.50;0.90;;;;;;;;;;5066155;28;20543;-79
2023/11/10 10:31:26;;;;;;;5.37;2.70;;;;;;;;;;5064125;28;20452;-78
2023/11/10 10:33:55;;;;;;;2.00;0.90;;;;;;;;;;5066000;28;20441;-79
2023/11/10 10:36:23;;;;;;;2.60;1.10;;;;;;;;;;5062869;28;20823;-79
2023/11/10 10:38:55;;;;;;;6.47;1.90;;;;;;;;;;5066065;28;20457;-77
2023/11/10 10:41:28;;;;;;;5.50;1.10;;;;;;;;;;5062968;28;20497;-80
2023/11/10 10:43:59;;;;;;;6.93;3.67;;;;;;;;;;5059997;28;20516;-79
2023/11/10 10:46:33;;;;;;;8.33;3.03;;;;;;;;;;5061968;28;20658;-81
2023/11/10 10:49:01;;;;;;;9.73;5.50;;;;;;;;;;5062414;28;20476;-79
2023/11/10 10:51:34;;;;;;;4.17;1.63;;;;;;;;;;5060416;28;20447;-78
2023/11/10 10:54:05;;;;;;;5.20;2.10;;;;;;;;;;5057779;28;20464;-78
2023/11/10 10:56:45;;;;;;;2.43;1.10;;;;;;;;;;5069404;28;20449;-79
2023/11/10 10:59:23;;;;;;;3.17;1.60;;;;;;;;;;5062209;28;20524;-79
2023/11/10 11:01:52;;;;;;;2.60;1.20;;;;;;;;;;5066713;28;20492;-79
2023/11/10 11:04:31;;;;;;;3.33;1.53;;;;;;;;;;5062265;28;20469;-78
2023/11/10 11:07:23;;;;;;;3.83;1.80;;;;;;;;;;5061218;28;20450;-81
2023/11/10 11:13:03;;;;;;;3.97;1.57;;;;;;;;;;5066963;28;20453;-79
2023/11/10 11:15:35;;;;;;;4.20;1.67;;;;;;;;;;5058213;28;20476;-77
2023/11/10 11:18:18;;;;;;;3.53;1.37;;;;;;;;;;5061031;28;20530;-78
2023/11/10 11:20:46;;;;;;;3.97;2.10;;;;;;;;;;5064383;28;20465;-78
2023/11/10 11:26:33;;;;;;;7.57;1.90;;;;;;;;;;5046746;28;20450;-79
2023/11/10 11:29:07;;;;;;;2.90;1.60;;;;;;;;;;5038263;28;20549;-80
2023/11/10 11:31:46;;;;;;;3.97;1.50;;;;;;;;;;5025741;28;20469;-79
2023/11/10 11:34:15;;;;;;;2.67;1.40;;;;;;;;;;5024952;28;20513;-78
2023/11/10 11:36:45;;;;;;;3.17;1.30;;;;;;;;;;5024679;28;20831;-80
2023/11/10 11:39:16;;;;;;;4.50;1.93;;;;;;;;;;5023448;28;20643;-78
2023/11/10 11:41:51;;;;;;;4.80;1.40;;;;;;;;;;5044480;28;20486;-79
2023/11/10 11:44:34;;;;;;;3.80;1.83;;;;;;;;;;5026006;28;20839;-78
2023/11/10 11:47:08;;;;;;;2.30;1.10;;;;;;;;;;5039244;28;20470;-79
2023/11/10 11:49:39;;;;;;;4.70;1.30;;;;;;;;;;5042081;28;20458;-79
2023/11/10 11:52:12;;;;;;;3.03;1.40;;;;;;;;;;5040311;28;20566;-78
2023/11/10 11:54:42;;;;;;;4.33;1.47;;;;;;;;;;5044251;28;20439;-78
2023/11/10 11:57:13;;;;;;;5.40;1.60;;;;;;;;;;5026051;28;20471;-81
2023/11/10 11:59:49;;;;;;;3.63;1.43;;;;;;;;;;5045898;28;20490;-78
2023/11/10 12:02:20;;;;;;;3.60;2.00;;;;;;;;;;5044690;28;20538;-78
2023/11/10 12:04:55;;;;;;;2.60;1.13;;;;;;;;;;5048716;28;20454;-80
2023/11/10 12:07:29;;;;;;;5.50;1.80;;;;;;;;;;5049072;28;21495;-80
2023/11/10 12:09:57;;;;;;;3.50;1.60;;;;;;;;;;5040967;28;20470;-79
2023/11/10 12:12:26;;;;;;;4.33;1.60;;;;;;;;;;5011651;28;20455;-78
2023/11/10 12:14:55;;;;;;;3.20;1.10;;;;;;;;;;5045303;28;20466;-77
2023/11/10 12:17:24;;;;;;;3.00;1.77;;;;;;;;;;5045157;28;20470;-78
2023/11/10 12:19:52;;;;;;;3.20;1.53;;;;;;;;;;5045384;28;20462;-80
2023/11/10 12:22:20;;;;;;;5.57;1.30;;;;;;;;;;5041485;28;20517;-78
2023/11/10 12:24:51;;;;;;;4.67;1.20;;;;;;;;;;5063754;28;20776;-79
2023/11/10 12:27:21;;;;;;;3.03;1.20;;;;;;;;;;5062266;28;20728;-80
2023/11/10 12:29:50;;;;;;;3.60;1.60;;;;;;;;;;5063704;28;20473;-78
2023/11/10 12:32:21;;;;;;;5.53;2.40;;;;;;;;;;5060670;28;20655;-79
2023/11/10 12:34:49;;;;;;;3.57;1.20;;;;;;;;;;5061588;28;20462;-78
2023/11/10 12:37:18;;;;;;;7.47;2.40;;;;;;;;;;5054513;28;20489;-78
2023/11/10 12:39:47;;;;;;;3.90;1.63;;;;;;;;;;5049028;28;20528;-79
2023/11/10 12:42:16;;;;;;;3.17;1.70;;;;;;;;;;5059572;28;20552;-78
2023/11/10 12:44:44;;;;;;;3.73;1.23;;;;;;;;;;5056722;28;20911;-79
2023/11/10 12:47:15;;;;;;;3.10;1.70;;;;;;;;;;5053710;28;20453;-79
2023/11/10 12:49:53;;;;;;;2.87;1.60;;;;;;;;;;5056524;28;20512;-80
2023/11/10 12:52:23;;;;;;;8.77;4.80;;;;;;;;;;5061434;28;20448;-78
2023/11/10 12:54:51;;;;;;;6.00;2.40;;;;;;;;;;5056705;28;20438;-78
2023/11/10 12:57:20;;;;;;;8.83;1.93;;;;;;;;;;5060291;28;20457;-79
2023/11/10 12:59:51;;;;;;;5.50;2.13;;;;;;;;;;5059341;28;20475;-79
2023/11/10 13:02:20;;;;;;;2.73;1.60;;;;;;;;;;5051570;28;20481;-79
2023/11/10 13:04:52;;;;;;;4.90;1.60;;;;;;;;;;5060104;28;20457;-79
2023/11/10 13:41:35;;;;;;;4.83;2.20;;;;;;;;;;5030317;22;20497;-78
2023/11/10 13:44:04;;;;;;;3.03;1.40;;;;;;;;;;5061356;28;20457;-79
2023/11/10 13:46:34;;;;;;;9.97;6.83;;;;;;;;;;5067887;28;20465;-79
2023/11/10 13:49:19;;;;;;;2.53;1.73;;;;;;;;;;5067086;28;20445;-79
2023/11/10 13:51:52;;;;;;;4.90;2.90;;;;;;;;;;5060720;28;20525;-79
2023/11/10 13:54:25;;;;;;;3.07;1.67;;;;;;;;;;5063250;28;20488;-79
2023/11/10 13:56:59;;;;;;;7.47;1.93;;;;;;;;;;5062288;28;20675;-79
2023/11/10 13:59:37;;;;;;;5.70;2.17;;;;;;;;;;5080306;28;20466;-80
2023/11/10 14:02:11;;;;;;;3.17;1.50;;;;;;;;;;5072965;28;20868;-80
2023/11/10 14:05:00;;;;;;;;;;;;;;;;;;;;;
2023/11/10 14:07:41;;;;;;;4.70;1.40;;;;;;;;;;5063556;28;20471;-78
2023/11/10 14:10:27;;;;;;;2.63;1.40;;;;;;;;;;5075523;28;20436;-78
2023/11/10 14:13:01;;;;;;;3.87;1.70;;;;;;;;;;5083955;28;20529;-78
2023/11/10 14:15:32;;;;;;;3.47;1.90;;;;;;;;;;5069447;28;20496;-78
2023/11/10 14:18:12;;;;;;;4.30;1.93;;;;;;;;;;5046794;28;20458;-79
2023/11/10 14:20:50;;;;;;;4.73;1.80;;;;;;;;;;5067516;28;20481;-78
2023/11/10 14:23:25;;;;;;;4.87;2.83;;;;;;;;;;5067656;28;20543;-79
2023/11/10 14:26:01;;;;;;;4.40;2.40;;;;;;;;;;5068956;28;20457;-79
2023/11/10 14:28:34;;;;;;;4.77;2.20;;;;;;;;;;5047152;28;20738;-78
2023/11/10 14:31:15;;;;;;;3.80;1.67;;;;;;;;;;5072972;28;20959;-80
2023/11/10 14:33:48;;;;;;;3.30;1.70;;;;;;;;;;5068470;28;20454;-79
2023/11/10 14:36:27;;;;;;;2.87;1.20;;;;;;;;;;5075007;28;20452;-79
2023/11/10 14:39:03;;;;;;;3.73;1.80;;;;;;;;;;5064678;28;20507;-78
2023/11/10 14:41:35;;;;;;;5.33;3.50;;;;;;;;;;5056018;28;20488;-79
2023/11/10 14:44:04;;;;;;;4.53;1.90;;;;;;;;;;5062450;28;20465;-78
2023/11/10 14:46:36;;;;;;;4.73;2.23;;;;;;;;;;5060733;28;20502;-79
2023/11/10 14:49:09;;;;;;;4.00;1.80;;;;;;;;;;5051001;28;20461;-79
2023/11/10 14:51:45;;;;;;;5.40;1.83;;;;;;;;;;5060325;28;20520;-78
2023/11/10 14:54:17;;;;;;;7.27;3.60;;;;;;;;;;5056295;28;20528;-79
2023/11/10 14:56:47;;;;;;;5.80;3.57;;;;;;;;;;5062023;28;20462;-79
2023/11/10 14:59:18;;;;;;;7.10;3.37;;;;;;;;;;5055292;28;20493;-79
2023/11/10 15:01:51;;;;;;;8.43;4.00;;;;;;;;;;5060775;28;20471;-80
2023/11/10 15:04:21;;;;;;;9.30;2.70;;;;;;;;;;5060345;28;20489;-77
2023/11/10 15:06:49;;;;;;;5.80;2.00;;;;;;;;;;5071702;28;20461;-79
2023/11/10 15:09:21;;;;;;;4.70;1.87;;;;;;;;;;5061397;28;20523;-78
2023/11/10 15:11:58;;;;;;;5.70;2.20;;;;;;;;;;5056276;28;20531;-81
2023/11/10 15:14:25;;;;;;;5.03;1.40;;;;;;;;;;5060100;28;20479;-79
2023/11/10 15:16:55;;;;;;;3.80;1.90;;;;;;;;;;5064213;28;20461;-77
2023/11/10 15:19:23;;;;;;;4.50;2.07;;;;;;;;;;5056984;28;20469;-79
2023/11/10 15:21:50;;;;;;;13.20;5.33;;;;;;;;;;5041107;28;20473;-80
2023/11/10 15:24:18;;;;;;;8.73;2.63;;;;;;;;;;5043987;28;20443;-80
2023/11/10 15:26:46;;;;;;;10.20;2.40;;;;;;;;;;5045652;28;20477;-79
2023/11/10 15:29:16;;;;;;;6.57;2.80;;;;;;;;;;5063346;28;20491;-78
2023/11/10 15:31:49;;;;;;;4.87;1.97;;;;;;;;;;5062441;28;20450;-80
2023/11/10 15:34:20;;;;;;;7.37;2.70;;;;;;;;;;5060405;28;21081;-80
2023/11/10 15:36:52;;;;;;;6.17;3.07;;;;;;;;;;5062990;28;20446;-79
2023/11/10 15:39:21;;;;;;;5.23;2.70;;;;;;;;;;5069885;28;20493;-79
2023/11/10 15:41:53;;;;;;;8.23;2.40;;;;;;;;;;5060935;28;20548;-79
2023/11/10 15:44:24;;;;;;;7.60;2.60;;;;;;;;;;5059750;28;20454;-80
2023/11/10 15:46:51;;;;;;;6.23;2.30;;;;;;;;;;5062547;28;20484;-79
2023/11/10 15:49:19;;;;;;;6.87;3.30;;;;;;;;;;5062260;28;20531;-82